NTAA/PPT METAR and TAF weather

Enter ICAO airport designator
Station Type Date Time Source
NTAA METAR 2021/05/12 02:04 UTC NOAA

NTAA 120204Z 22006KT 9999 FEW030 SCT060 BKN260 30/22 Q1011 WS ALL RWY NOSIG


Station Type Date Time Source
NTAA Decoded METAR 2021/05/12 02:04 UTC NOAA

Tahiti-Faaa, French Polynesia (NTAA) 17-33S 149-37W 2M
May 11, 2021 - 10:04 PM EDT / 2021.05.12 0204 UTC
Wind: from the SW (220 degrees) at 7 MPH (6 KT):0
Visibility: greater than 7 mile(s):0
Sky conditions: mostly cloudy
Temperature: 86 F (30 C)
Heat index: 91.8 F (33.2 C):1
Dew Point: 71 F (22 C)
Relative Humidity: 62%
Pressure (altimeter): 29.85 in. Hg (1011 hPa)
ob: NTAA 120204Z 22006KT 9999 FEW030 SCT060 BKN260 30/22 Q1011 WS ALL RWY NOSIG
cycle: 2

Station Type Date Time Source
NTAA TAF 2021/05/11 20:37 UTC NOAA

TAF
AMD NTAA 112030Z 1120/1224 05018KT 9999 FEW023
BECMG 1203/1205 VRB03KT FEW015TCU SCT018 BKN040
TEMPO 1206/1218 04016KT 3000 SHRA FEW015TCU BKN020 BKN040 PROB30
TEMPO 1208/1214 1400 +TSRA SCT015CB BKN018 BKN040
FM121800 05016KT 9999 FEW023

Example: see airport list